createdAt,value
2022-08-28T00:00:41.052Z,12.93
2022-08-28T00:02:58.186Z,12.05
2022-08-28T00:05:15.287Z,13.50
2022-08-28T00:07:32.630Z,13.55
2022-08-28T00:09:50.996Z,12.10
2022-08-28T00:12:08.218Z,13.68
2022-08-28T00:14:25.278Z,12.82
2022-08-28T00:16:42.331Z,12.48
2022-08-28T00:18:59.748Z,12.02
2022-08-28T00:21:17.853Z,12.60
2022-08-28T00:23:42.707Z,12.60
2022-08-28T00:26:00.295Z,12.00
2022-08-28T00:28:24.075Z,12.38
2022-08-28T00:32:58.817Z,11.93
2022-08-28T00:35:16.091Z,12.02
2022-08-28T00:37:33.192Z,11.90
2022-08-28T00:39:50.206Z,12.07
2022-08-28T00:42:07.273Z,11.95
2022-08-28T00:44:24.215Z,11.60
2022-08-28T00:46:41.346Z,11.82
2022-08-28T00:48:58.426Z,10.63
2022-08-28T00:51:16.004Z,11.50
2022-08-28T00:53:33.249Z,11.98
2022-08-28T00:55:50.644Z,11.93
2022-08-28T00:58:08.194Z,11.10
2022-08-28T01:00:25.347Z,11.02
2022-08-28T01:02:42.609Z,11.02
2022-08-28T01:04:59.708Z,11.35
2022-08-28T01:07:17.800Z,11.77
2022-08-28T01:09:34.944Z,11.73
2022-08-28T01:11:52.091Z,12.48
2022-08-28T01:14:09.195Z,12.43
2022-08-28T01:16:28.370Z,11.20
2022-08-28T01:18:49.406Z,11.70
2022-08-28T01:21:06.465Z,11.30
2022-08-28T01:23:23.561Z,11.63
2022-08-28T01:25:40.656Z,11.27
2022-08-28T01:27:57.652Z,12.10
2022-08-28T01:30:14.718Z,12.50
2022-08-28T01:32:32.103Z,11.45
2022-08-28T01:34:49.400Z,12.63
2022-08-28T01:37:06.439Z,11.60
2022-08-28T01:39:23.900Z,10.85
2022-08-28T01:41:41.383Z,9.65
2022-08-28T01:43:58.500Z,9.95
2022-08-28T01:46:16.628Z,10.55
2022-08-28T01:48:33.760Z,9.77
2022-08-28T01:50:50.747Z,10.85
2022-08-28T01:53:07.782Z,10.93
2022-08-28T01:55:30.513Z,10.40
2022-08-28T01:57:47.486Z,10.20
2022-08-28T02:00:04.534Z,11.50
2022-08-28T02:02:22.022Z,10.45
2022-08-28T02:04:39.300Z,10.85
2022-08-28T02:06:56.289Z,11.68
2022-08-28T02:09:14.852Z,10.60
2022-08-28T02:11:33.274Z,10.02
2022-08-28T02:13:50.759Z,10.93
2022-08-28T02:16:08.182Z,10.30
2022-08-28T02:18:25.175Z,10.88
2022-08-28T02:20:42.205Z,10.35
2022-08-28T02:22:59.545Z,10.00
2022-08-28T02:25:16.860Z,10.98
2022-08-28T02:27:35.248Z,10.48
2022-08-28T02:29:52.222Z,10.48
2022-08-28T02:32:09.303Z,9.95
2022-08-28T02:34:27.238Z,10.60
2022-08-28T02:36:44.648Z,9.40
2022-08-28T02:39:01.697Z,9.05
2022-08-28T02:41:20.126Z,9.00
2022-08-28T02:43:37.495Z,10.20
2022-08-28T02:45:55.627Z,10.15
2022-08-28T02:48:16.954Z,9.93
2022-08-28T02:50:34.870Z,10.63
2022-08-28T02:52:51.997Z,9.63
2022-08-28T02:55:09.049Z,10.13
2022-08-28T02:57:26.422Z,10.65
2022-08-28T02:59:43.840Z,10.70
2022-08-28T03:02:00.936Z,9.63
2022-08-28T03:04:17.856Z,10.60
2022-08-28T03:06:35.150Z,9.50
2022-08-28T03:08:52.198Z,9.50
2022-08-28T03:11:09.265Z,11.20
2022-08-28T03:13:27.294Z,10.23
2022-08-28T03:15:45.526Z,10.38
2022-08-28T03:18:02.666Z,9.95
2022-08-28T03:20:28.587Z,9.93
2022-08-28T03:22:45.696Z,10.07
2022-08-28T03:25:02.800Z,9.48
2022-08-28T03:27:20.787Z,9.75
2022-08-28T03:29:37.870Z,9.85
2022-08-28T03:31:54.948Z,9.55
2022-08-28T03:34:11.960Z,9.00
2022-08-28T03:36:28.899Z,9.65
2022-08-28T03:38:45.879Z,8.73
2022-08-28T03:41:03.125Z,9.07
2022-08-28T03:43:20.165Z,9.70
2022-08-28T03:45:37.281Z,9.18
2022-08-28T03:47:54.641Z,9.70
2022-08-28T03:50:11.974Z,9.75
2022-08-28T03:52:29.665Z,9.93
2022-08-28T03:54:46.928Z,9.07
2022-08-28T03:57:04.236Z,9.52
2022-08-28T03:59:21.150Z,9.13
2022-08-28T04:01:43.227Z,8.75
2022-08-28T04:04:00.296Z,8.85
2022-08-28T04:06:17.276Z,8.55
2022-08-28T04:08:34.618Z,9.27
2022-08-28T04:10:51.891Z,8.40
2022-08-28T04:13:09.121Z,8.38
2022-08-28T04:15:26.300Z,8.25
2022-08-28T04:17:43.279Z,8.20
2022-08-28T04:20:01.396Z,9.15
2022-08-28T04:22:18.538Z,9.00
2022-08-28T04:24:35.879Z,8.82
2022-08-28T04:26:53.258Z,8.65
2022-08-28T04:29:10.509Z,8.50
2022-08-28T04:31:31.621Z,8.18
2022-08-28T04:33:49.684Z,8.10
2022-08-28T04:36:06.748Z,8.00
2022-08-28T04:38:24.044Z,8.50
2022-08-28T04:40:41.076Z,8.45
2022-08-28T04:42:58.143Z,8.32
2022-08-28T04:45:16.144Z,8.02
2022-08-28T04:47:33.501Z,8.50
2022-08-28T04:49:50.526Z,8.07
2022-08-28T04:52:07.602Z,8.15
2022-08-28T04:54:24.874Z,8.23
2022-08-28T04:56:42.900Z,7.75
2022-08-28T04:59:00.309Z,8.38
2022-08-28T05:01:17.632Z,8.40
2022-08-28T05:03:34.597Z,7.75
2022-08-28T05:05:51.692Z,8.60
2022-08-28T05:08:08.845Z,8.15
2022-08-28T05:10:26.097Z,8.40
2022-08-28T05:12:43.023Z,7.97
2022-08-28T05:15:00.103Z,8.60
2022-08-28T05:17:18.014Z,9.13
2022-08-28T05:19:35.057Z,8.43
2022-08-28T05:21:52.362Z,8.00
2022-08-28T05:24:09.689Z,8.77
2022-08-28T05:26:27.205Z,8.45
2022-08-28T05:28:46.657Z,8.68
2022-08-28T05:31:03.599Z,8.82
2022-08-28T05:33:20.705Z,8.02
2022-08-28T05:35:37.992Z,8.35
2022-08-28T05:37:55.031Z,8.15
2022-08-28T05:40:12.084Z,7.78
2022-08-28T05:42:31.047Z,7.93
2022-08-28T05:44:49.237Z,8.35
2022-08-28T05:47:11.670Z,7.63
2022-08-28T05:49:28.996Z,7.45
2022-08-28T05:51:46.523Z,8.05
2022-08-28T05:54:03.841Z,7.78
2022-08-28T05:56:21.105Z,7.28
2022-08-28T05:58:38.157Z,7.38
2022-08-28T06:00:55.124Z,7.93
2022-08-28T06:03:12.418Z,7.82
2022-08-28T06:05:29.440Z,7.80
2022-08-28T06:07:46.774Z,7.30
2022-08-28T06:10:03.753Z,7.32
2022-08-28T06:12:23.218Z,7.45
2022-08-28T06:14:40.588Z,6.70
2022-08-28T06:16:58.272Z,7.40
2022-08-28T06:19:16.411Z,6.93
2022-08-28T06:21:33.685Z,7.05
2022-08-28T06:23:50.970Z,6.50
2022-08-28T06:26:09.267Z,6.70
2022-08-28T06:28:26.623Z,6.18
2022-08-28T06:30:52.844Z,6.07
2022-08-28T06:33:20.530Z,6.00
2022-08-28T06:35:37.449Z,6.20
2022-08-28T06:37:54.924Z,5.68
2022-08-28T06:40:12.271Z,5.85
2022-08-28T06:42:29.300Z,5.55
2022-08-28T06:44:46.567Z,5.95
2022-08-28T06:47:03.569Z,6.35
2022-08-28T06:49:20.956Z,5.85
2022-08-28T06:51:38.996Z,6.05
2022-08-28T06:53:56.253Z,5.45
2022-08-28T06:56:13.732Z,5.32
2022-08-28T06:58:43.439Z,5.50
2022-08-28T07:01:07.294Z,5.38
2022-08-28T07:03:24.414Z,5.30
2022-08-28T07:05:41.401Z,5.38
2022-08-28T07:07:58.419Z,5.57
2022-08-28T07:10:15.687Z,5.00
2022-08-28T07:12:32.640Z,5.53
2022-08-28T07:14:49.685Z,5.72
2022-08-28T07:17:06.739Z,5.50
2022-08-28T07:19:23.726Z,4.90
2022-08-28T07:21:40.670Z,4.70
2022-08-28T07:23:57.778Z,4.55
2022-08-28T07:26:14.735Z,4.40
2022-08-28T07:28:31.683Z,3.90
2022-08-28T07:30:49.018Z,4.43
2022-08-28T07:33:06.343Z,4.20
2022-08-28T07:35:23.444Z,3.92
2022-08-28T07:37:41.010Z,3.83
2022-08-28T07:39:58.274Z,4.20
2022-08-28T07:42:16.235Z,4.43
2022-08-28T07:44:33.320Z,4.38
2022-08-28T07:46:50.375Z,4.30
2022-08-28T07:49:07.367Z,3.83
2022-08-28T07:51:24.734Z,4.00
2022-08-28T07:53:41.631Z,4.35
2022-08-28T07:55:59.014Z,4.00
2022-08-28T07:58:16.014Z,4.22
2022-08-28T08:00:32.974Z,4.50
2022-08-28T08:02:50.892Z,4.13
2022-08-28T08:05:08.187Z,3.60
2022-08-28T08:07:25.100Z,4.38
2022-08-28T08:09:42.380Z,3.65
2022-08-28T08:12:00.238Z,3.78
2022-08-28T08:14:17.555Z,3.58
2022-08-28T08:16:34.803Z,3.80
2022-08-28T08:18:51.922Z,3.53
2022-08-28T08:21:09.198Z,3.80
2022-08-28T08:23:26.144Z,3.53
2022-08-28T08:25:43.406Z,3.60
2022-08-28T08:28:00.698Z,3.72
2022-08-28T08:30:17.988Z,3.60
2022-08-28T08:32:36.074Z,3.50
2022-08-28T08:34:54.380Z,3.63
2022-08-28T08:37:11.351Z,3.70
2022-08-28T08:39:28.635Z,3.70
2022-08-28T08:41:49.097Z,3.80
2022-08-28T08:44:06.457Z,3.70
2022-08-28T08:46:23.458Z,3.30
2022-08-28T08:48:40.439Z,3.78
2022-08-28T08:50:57.753Z,3.50
2022-08-28T08:53:14.835Z,3.67
2022-08-28T08:55:32.144Z,3.40
2022-08-28T08:57:49.425Z,3.50
2022-08-28T09:00:06.601Z,3.05
2022-08-28T09:02:26.351Z,3.10
2022-08-28T09:04:48.553Z,2.95
2022-08-28T09:07:06.018Z,3.20
2022-08-28T09:09:23.534Z,3.45
2022-08-28T09:11:40.570Z,3.00
2022-08-28T09:13:57.973Z,3.20
2022-08-28T09:16:15.078Z,2.75
2022-08-28T09:18:32.422Z,3.53
2022-08-28T09:20:49.392Z,3.08
2022-08-28T09:23:13.147Z,3.67
2022-08-28T09:25:31.074Z,3.00
2022-08-28T09:27:48.044Z,3.45
2022-08-28T09:30:08.053Z,3.10
2022-08-28T09:32:25.461Z,3.33
2022-08-28T09:34:44.811Z,3.17
2022-08-28T09:37:01.862Z,2.90
2022-08-28T09:39:18.952Z,3.15
2022-08-28T09:41:35.965Z,3.38
2022-08-28T09:43:52.969Z,3.00
2022-08-28T09:46:10.046Z,3.38
2022-08-28T09:48:27.423Z,3.30
2022-08-28T09:50:44.406Z,3.40
2022-08-28T09:53:01.470Z,3.08
2022-08-28T09:55:18.818Z,3.53
2022-08-28T09:57:36.055Z,3.88
2022-08-28T09:59:53.079Z,3.05
2022-08-28T10:02:10.521Z,3.33
2022-08-28T10:04:27.733Z,2.95
2022-08-28T10:06:44.778Z,2.90
2022-08-28T10:09:01.896Z,3.28
2022-08-28T10:11:19.687Z,3.00
2022-08-28T10:13:36.940Z,3.10
2022-08-28T10:15:54.057Z,3.38
2022-08-28T10:18:11.304Z,2.78
2022-08-28T10:20:28.627Z,3.25
2022-08-28T10:22:46.704Z,3.00
2022-08-28T10:25:03.709Z,3.00
2022-08-28T10:27:20.765Z,3.13
2022-08-28T10:29:39.115Z,3.30
2022-08-28T10:31:56.679Z,3.13
2022-08-28T10:34:13.722Z,3.13
2022-08-28T10:36:34.054Z,3.22
2022-08-28T10:38:53.632Z,3.20
2022-08-28T10:41:11.061Z,3.00
2022-08-28T10:43:28.419Z,3.35
2022-08-28T10:45:45.473Z,3.20
2022-08-28T10:48:02.553Z,3.17
2022-08-28T10:50:19.638Z,3.13
2022-08-28T10:52:37.605Z,3.13
2022-08-28T10:54:54.654Z,3.13
2022-08-28T10:57:11.644Z,2.80
2022-08-28T10:59:28.627Z,2.97
2022-08-28T11:01:45.792Z,3.15
2022-08-28T11:04:02.857Z,3.00
2022-08-28T11:06:21.113Z,3.30
2022-08-28T11:08:38.556Z,3.13
2022-08-28T11:10:55.574Z,3.00
2022-08-28T11:13:12.792Z,3.10
2022-08-28T11:15:36.823Z,3.30
2022-08-28T11:17:54.706Z,3.20
2022-08-28T11:20:11.643Z,3.17
2022-08-28T11:22:28.965Z,3.10
2022-08-28T11:24:47.805Z,3.22
2022-08-28T11:27:04.782Z,3.30
2022-08-28T11:29:22.748Z,3.03
2022-08-28T11:31:39.891Z,2.92
2022-08-28T11:33:56.965Z,3.30
2022-08-28T11:36:14.261Z,3.25
2022-08-28T11:38:31.472Z,2.80
2022-08-28T11:40:48.876Z,3.65
2022-08-28T11:43:06.192Z,3.38
2022-08-28T11:45:23.240Z,3.13
2022-08-28T11:47:40.505Z,3.22
2022-08-28T11:49:57.883Z,3.38
2022-08-28T11:52:14.884Z,3.22
2022-08-28T11:54:31.961Z,3.45
2022-08-28T11:56:48.939Z,3.30
2022-08-28T11:59:08.130Z,2.95
2022-08-28T12:01:27.298Z,3.50
2022-08-28T12:03:44.565Z,3.20
2022-08-28T12:06:01.483Z,3.50
2022-08-28T12:08:18.813Z,3.50
2022-08-28T12:10:35.932Z,3.58
2022-08-28T12:12:53.231Z,3.55
2022-08-28T12:15:10.766Z,3.42
2022-08-28T12:17:31.102Z,3.58
2022-08-28T12:19:55.468Z,3.38
2022-08-28T12:22:13.198Z,3.55
2022-08-28T12:24:30.522Z,3.70
2022-08-28T12:26:47.829Z,3.35
2022-08-28T12:29:05.226Z,3.58
2022-08-28T12:31:22.632Z,3.33
2022-08-28T12:33:39.574Z,3.65
2022-08-28T12:35:56.570Z,3.20
2022-08-28T12:38:13.862Z,3.72
2022-08-28T12:40:31.204Z,3.30
2022-08-28T12:42:51.984Z,3.72
2022-08-28T12:45:11.387Z,3.63
2022-08-28T12:47:28.454Z,3.50
2022-08-28T12:49:45.700Z,3.38
2022-08-28T12:52:04.609Z,3.58
2022-08-28T12:54:22.653Z,3.85
2022-08-28T12:56:39.691Z,3.60
2022-08-28T12:58:56.730Z,3.20
2022-08-28T13:01:13.813Z,3.78
2022-08-28T13:03:31.149Z,3.30
2022-08-28T13:05:48.199Z,3.22
2022-08-28T13:08:05.192Z,3.20
2022-08-28T13:10:22.300Z,3.30
2022-08-28T13:12:55.863Z,2.75
2022-08-28T13:15:14.671Z,3.45
2022-08-28T13:17:41.493Z,3.42
2022-08-28T13:19:58.606Z,3.42
2022-08-28T13:22:16.552Z,3.50
2022-08-28T13:24:33.637Z,3.22
2022-08-28T13:26:50.870Z,3.50
2022-08-28T13:29:07.907Z,3.50
2022-08-28T13:31:24.979Z,3.65
2022-08-28T13:33:41.915Z,3.60
2022-08-28T13:35:59.153Z,3.35
2022-08-28T13:38:16.126Z,3.38
2022-08-28T13:43:10.174Z,3.30
2022-08-28T13:45:31.512Z,3.03
2022-08-28T13:48:00.330Z,2.72
2022-08-28T13:50:17.675Z,3.17
2022-08-28T13:52:34.936Z,2.80
2022-08-28T13:54:53.152Z,3.08
2022-08-28T13:57:10.183Z,3.05
2022-08-28T13:59:28.224Z,2.72
2022-08-28T14:01:45.270Z,3.20
2022-08-28T14:04:02.269Z,3.00
2022-08-28T14:06:19.326Z,2.83
2022-08-28T14:08:39.894Z,3.00
2022-08-28T14:10:56.801Z,3.03
2022-08-28T14:13:13.986Z,2.70
2022-08-28T14:15:31.135Z,2.70
2022-08-28T14:17:48.066Z,2.63
2022-08-28T14:20:05.010Z,3.20
2022-08-28T14:22:22.113Z,3.22
2022-08-28T14:24:39.392Z,2.70
2022-08-28T14:26:56.455Z,2.78
2022-08-28T14:29:13.705Z,2.88
2022-08-28T14:31:30.694Z,3.20
2022-08-28T14:33:47.861Z,2.78
2022-08-28T14:36:05.959Z,2.67
2022-08-28T14:38:23.387Z,3.13
2022-08-28T14:40:40.484Z,2.85
2022-08-28T14:42:57.909Z,2.90
2022-08-28T14:45:14.930Z,2.78
2022-08-28T14:47:32.010Z,3.15
2022-08-28T14:49:49.085Z,3.10
2022-08-28T14:52:06.070Z,3.50
2022-08-28T14:54:23.159Z,3.30
2022-08-28T14:56:40.172Z,3.10
2022-08-28T14:58:57.145Z,3.25
2022-08-28T15:01:14.190Z,3.20
2022-08-28T15:03:31.211Z,3.10
2022-08-28T15:05:48.327Z,3.42
2022-08-28T15:08:05.331Z,3.30
2022-08-28T15:10:22.262Z,3.50
2022-08-28T15:12:39.332Z,3.03
2022-08-28T15:14:59.566Z,3.63
2022-08-28T15:17:16.528Z,3.10
2022-08-28T15:19:33.633Z,3.13
2022-08-28T15:21:50.675Z,3.00
2022-08-28T15:24:08.928Z,2.80
2022-08-28T15:26:26.274Z,3.10
2022-08-28T15:28:43.509Z,2.83
2022-08-28T15:31:00.599Z,3.22
2022-08-28T15:33:17.521Z,3.03
2022-08-28T15:35:34.493Z,3.10
2022-08-28T15:37:51.492Z,3.00
2022-08-28T15:40:08.462Z,3.03
2022-08-28T15:42:25.455Z,3.40
2022-08-28T15:44:42.523Z,3.30
2022-08-28T15:46:59.526Z,3.20
2022-08-28T15:49:16.823Z,3.10
2022-08-28T15:51:33.956Z,3.33
2022-08-28T15:53:51.209Z,3.35
2022-08-28T15:56:08.556Z,3.13
2022-08-28T15:58:25.556Z,3.17
2022-08-28T16:00:42.913Z,3.47
2022-08-28T16:02:59.922Z,3.15
2022-08-28T16:05:17.203Z,3.60
2022-08-28T16:07:35.552Z,3.50
2022-08-28T16:09:52.884Z,3.53
2022-08-28T16:12:09.849Z,3.40
2022-08-28T16:14:27.139Z,3.50
2022-08-28T16:16:46.414Z,3.65
2022-08-28T16:19:06.192Z,3.55
2022-08-28T16:21:23.124Z,3.78
2022-08-28T16:23:44.564Z,3.75
2022-08-28T16:26:01.518Z,3.65
2022-08-28T16:28:18.558Z,4.07
2022-08-28T16:30:36.100Z,4.13
2022-08-28T16:32:54.189Z,3.70
2022-08-28T16:35:11.387Z,3.83
2022-08-28T16:37:36.323Z,3.97
2022-08-28T16:39:57.082Z,3.75
2022-08-28T16:42:14.158Z,3.75
2022-08-28T16:44:32.090Z,3.60
2022-08-28T16:46:49.418Z,3.90
2022-08-28T16:49:06.402Z,3.90
2022-08-28T16:51:23.543Z,3.75
2022-08-28T16:53:40.861Z,3.33
2022-08-28T16:55:58.153Z,3.42
2022-08-28T16:58:17.129Z,3.72
2022-08-28T17:00:34.619Z,4.00
2022-08-28T17:03:02.635Z,3.40
2022-08-28T17:05:19.953Z,3.75
2022-08-28T17:07:36.996Z,3.53
2022-08-28T17:09:54.241Z,3.38
2022-08-28T17:12:11.598Z,3.15
2022-08-28T17:14:29.774Z,3.33
2022-08-28T17:16:46.731Z,3.50
2022-08-28T17:19:04.130Z,2.97
2022-08-28T17:21:22.210Z,3.30
2022-08-28T17:23:39.462Z,3.10
2022-08-28T17:25:56.475Z,2.90
2022-08-28T17:28:13.640Z,2.78
2022-08-28T17:30:30.987Z,3.20
2022-08-28T17:32:48.275Z,2.90
2022-08-28T17:35:05.263Z,2.88
2022-08-28T17:37:23.148Z,2.75
2022-08-28T17:39:40.117Z,3.03
2022-08-28T17:41:57.014Z,3.05
2022-08-28T17:44:14.268Z,2.90
2022-08-28T17:46:35.386Z,2.83
2022-08-28T17:48:56.039Z,2.97
2022-08-28T17:51:13.441Z,3.05
2022-08-28T17:53:33.361Z,2.88
2022-08-28T17:55:50.492Z,2.90
2022-08-28T17:58:07.827Z,2.83
2022-08-28T18:00:25.143Z,2.88
2022-08-28T18:02:42.214Z,2.95
2022-08-28T18:04:59.164Z,2.80
2022-08-28T18:07:18.676Z,2.67
2022-08-28T18:09:35.983Z,2.63
2022-08-28T18:11:53.080Z,2.95
2022-08-28T18:14:11.187Z,2.72
2022-08-28T18:16:31.348Z,2.83
2022-08-28T18:18:48.726Z,2.50
2022-08-28T18:21:06.057Z,2.90
2022-08-28T18:23:23.374Z,2.75
2022-08-28T18:25:40.645Z,2.58
2022-08-28T18:27:59.474Z,3.28
2022-08-28T18:30:16.852Z,2.67
2022-08-28T18:32:34.929Z,2.50
2022-08-28T18:34:52.053Z,2.92
2022-08-28T18:37:09.296Z,2.53
2022-08-28T18:39:29.459Z,2.70
2022-08-28T18:41:47.024Z,2.40
2022-08-28T18:44:04.855Z,2.88
2022-08-28T18:46:23.170Z,2.50
2022-08-28T18:48:40.192Z,2.40
2022-08-28T18:50:57.152Z,2.47
2022-08-28T18:53:14.143Z,2.83
2022-08-28T18:55:32.056Z,3.15
2022-08-28T18:57:49.397Z,2.65
2022-08-28T19:00:09.022Z,2.42
2022-08-28T19:02:26.033Z,2.42
2022-08-28T19:04:43.135Z,2.70
2022-08-28T19:07:00.110Z,3.30
2022-08-28T19:09:18.604Z,2.53
2022-08-28T19:11:38.054Z,2.90
2022-08-28T19:13:56.413Z,3.08
2022-08-28T19:16:13.419Z,2.60
2022-08-28T19:18:30.715Z,2.88
2022-08-28T19:20:47.743Z,2.97
2022-08-28T19:23:04.697Z,2.70
2022-08-28T19:25:23.327Z,2.63
2022-08-28T19:27:46.026Z,2.72
2022-08-28T19:30:06.007Z,2.58
2022-08-28T19:32:27.146Z,2.30
2022-08-28T19:34:44.227Z,2.55
2022-08-28T19:37:01.582Z,2.50
2022-08-28T19:39:18.810Z,2.90
2022-08-28T19:41:36.109Z,2.53
2022-08-28T19:43:53.342Z,2.40
2022-08-28T19:46:14.088Z,2.60
2022-08-28T19:48:36.993Z,2.40
2022-08-28T19:50:54.284Z,3.15
2022-08-28T19:53:11.296Z,2.60
2022-08-28T19:55:28.290Z,2.78
2022-08-28T19:57:46.372Z,2.63
2022-08-28T20:00:03.583Z,2.55
2022-08-28T20:02:20.890Z,2.70
2022-08-28T20:04:37.975Z,2.67
2022-08-28T20:06:55.018Z,2.58
2022-08-28T20:09:14.343Z,2.60
2022-08-28T20:11:31.286Z,2.50
2022-08-28T20:13:48.581Z,2.58
2022-08-28T20:16:05.736Z,2.83
2022-08-28T20:18:23.675Z,2.22
2022-08-28T20:20:40.735Z,2.47
2022-08-28T20:22:58.019Z,2.17
2022-08-28T20:25:16.314Z,2.42
2022-08-28T20:27:33.559Z,2.58
2022-08-28T20:29:50.601Z,2.50
2022-08-28T20:32:07.631Z,2.60
2022-08-28T20:34:24.592Z,2.63
2022-08-28T20:36:41.926Z,2.95
2022-08-28T20:38:59.261Z,2.60
2022-08-28T20:41:16.315Z,2.90
2022-08-28T20:43:33.947Z,2.42
2022-08-28T20:45:51.310Z,2.50
2022-08-28T20:48:08.317Z,2.83
2022-08-28T20:50:25.424Z,2.70
2022-08-28T20:52:42.700Z,2.80
2022-08-28T20:54:59.979Z,2.70
2022-08-28T20:57:17.518Z,2.47
2022-08-28T20:59:40.129Z,2.53
2022-08-28T21:01:57.549Z,2.58
2022-08-28T21:04:14.457Z,2.50
2022-08-28T21:06:31.759Z,2.47
2022-08-28T21:08:48.805Z,2.63
2022-08-28T21:11:06.449Z,2.70
2022-08-28T21:13:23.410Z,2.33
2022-08-28T21:15:40.314Z,2.40
2022-08-28T21:17:57.261Z,2.38
2022-08-28T21:20:14.207Z,2.05
2022-08-28T21:22:31.611Z,2.33
2022-08-28T21:24:48.734Z,2.25
2022-08-28T21:27:06.084Z,2.40
2022-08-28T21:29:26.532Z,2.60
2022-08-28T21:31:43.853Z,2.60
2022-08-28T21:34:00.949Z,2.58
2022-08-28T21:36:17.943Z,2.60
2022-08-28T21:38:36.261Z,2.22
2022-08-28T21:40:53.556Z,2.20
2022-08-28T21:43:10.778Z,2.58
2022-08-28T21:45:27.844Z,2.90
2022-08-28T21:47:44.743Z,2.22
2022-08-28T21:50:01.735Z,2.20
2022-08-28T21:52:19.014Z,2.42
2022-08-28T21:54:36.043Z,2.70
2022-08-28T21:56:58.758Z,2.67
2022-08-28T21:59:16.326Z,2.10
2022-08-28T22:01:33.373Z,2.17
2022-08-28T22:03:50.773Z,2.40
2022-08-28T22:06:08.048Z,2.90
2022-08-28T22:08:25.065Z,2.47
2022-08-28T22:10:41.997Z,2.22
2022-08-28T22:12:58.935Z,2.20
2022-08-28T22:15:16.183Z,2.40
2022-08-28T22:17:33.495Z,2.50
2022-08-28T22:19:50.543Z,2.30
2022-08-28T22:22:07.593Z,2.38
2022-08-28T22:24:24.569Z,2.35
2022-08-28T22:26:41.590Z,2.30
2022-08-28T22:28:58.878Z,1.92
2022-08-28T22:31:16.097Z,2.40
2022-08-28T22:33:35.006Z,2.13
2022-08-28T22:35:52.283Z,2.60
2022-08-28T22:38:09.231Z,2.30
2022-08-28T22:40:27.177Z,2.30
2022-08-28T22:42:44.239Z,2.50
2022-08-28T22:45:01.369Z,2.47
2022-08-28T22:47:18.994Z,2.30
2022-08-28T22:49:39.633Z,2.40
2022-08-28T22:51:57.176Z,2.45
2022-08-28T22:54:14.827Z,2.30
2022-08-28T22:56:31.805Z,2.20
2022-08-28T22:58:48.904Z,2.45
2022-08-28T23:01:05.984Z,2.70
2022-08-28T23:03:26.196Z,2.63
2022-08-28T23:05:46.276Z,2.25
2022-08-28T23:08:04.239Z,2.42
2022-08-28T23:10:32.093Z,2.45
2022-08-28T23:12:58.228Z,2.03
2022-08-28T23:15:15.317Z,2.40
2022-08-28T23:17:32.440Z,2.60
2022-08-28T23:19:50.300Z,2.65
2022-08-28T23:22:08.374Z,2.40
2022-08-28T23:24:25.551Z,2.47
2022-08-28T23:26:42.677Z,2.42
2022-08-28T23:28:59.787Z,2.13
2022-08-28T23:31:16.819Z,2.22
2022-08-28T23:33:33.895Z,2.65
2022-08-28T23:35:52.402Z,2.63
2022-08-28T23:38:09.492Z,2.10
2022-08-28T23:40:26.722Z,2.20
2022-08-28T23:42:46.819Z,2.22
2022-08-28T23:45:05.956Z,2.38
2022-08-28T23:47:24.309Z,2.17
2022-08-28T23:49:42.722Z,2.38
2022-08-28T23:52:00.369Z,2.30
2022-08-28T23:54:20.788Z,2.20
2022-08-28T23:56:39.198Z,2.30
2022-08-28T23:58:56.105Z,2.35
